sensor_id;sensor_type;location;lat;lon;timestamp;P1;durP1;ratioP1;P2;durP2;ratioP2
65202;SDS011;51788;45.124;38.966;2024-01-30T00:17:52;8.75;;;7.63;;
65202;SDS011;51788;45.124;38.966;2024-01-30T00:20:18;11.00;;;8.10;;
65202;SDS011;51788;45.124;38.966;2024-01-30T00:22:44;6.93;;;6.22;;
65202;SDS011;51788;45.124;38.966;2024-01-30T00:25:10;12.77;;;8.80;;
65202;SDS011;51788;45.124;38.966;2024-01-30T00:27:35;10.38;;;9.23;;
65202;SDS011;51788;45.124;38.966;2024-01-30T00:30:01;7.78;;;7.05;;
65202;SDS011;51788;45.124;38.966;2024-01-30T00:32:28;9.80;;;6.80;;
65202;SDS011;51788;45.124;38.966;2024-01-30T00:34:54;8.45;;;7.00;;
65202;SDS011;51788;45.124;38.966;2024-01-30T00:37:20;8.50;;;7.63;;
65202;SDS011;51788;45.124;38.966;2024-01-30T00:39:46;12.95;;;7.20;;
65202;SDS011;51788;45.124;38.966;2024-01-30T00:42:11;10.02;;;9.02;;
65202;SDS011;51788;45.124;38.966;2024-01-30T00:44:37;10.38;;;9.35;;
65202;SDS011;51788;45.124;38.966;2024-01-30T00:47:04;9.25;;;8.27;;
65202;SDS011;51788;45.124;38.966;2024-01-30T00:49:30;8.98;;;8.13;;
65202;SDS011;51788;45.124;38.966;2024-01-30T00:51:56;9.23;;;7.75;;
65202;SDS011;51788;45.124;38.966;2024-01-30T00:54:22;12.85;;;11.07;;
65202;SDS011;51788;45.124;38.966;2024-01-30T00:56:48;7.40;;;6.70;;
65202;SDS011;51788;45.124;38.966;2024-01-30T00:59:14;5.38;;;4.57;;
65202;SDS011;51788;45.124;38.966;2024-01-30T01:01:40;10.98;;;9.18;;
65202;SDS011;51788;45.124;38.966;2024-01-30T01:04:06;11.07;;;10.05;;
65202;SDS011;51788;45.124;38.966;2024-01-30T01:06:32;7.88;;;7.18;;
65202;SDS011;51788;45.124;38.966;2024-01-30T01:08:58;10.38;;;9.40;;
65202;SDS011;51788;45.124;38.966;2024-01-30T01:11:24;9.50;;;8.50;;
65202;SDS011;51788;45.124;38.966;2024-01-30T01:13:50;7.25;;;6.32;;
65202;SDS011;51788;45.124;38.966;2024-01-30T01:16:16;9.98;;;8.32;;
65202;SDS011;51788;45.124;38.966;2024-01-30T01:18:42;9.48;;;8.57;;
65202;SDS011;51788;45.124;38.966;2024-01-30T01:21:08;11.50;;;7.78;;
65202;SDS011;51788;45.124;38.966;2024-01-30T01:23:34;11.15;;;7.28;;
65202;SDS011;51788;45.124;38.966;2024-01-30T01:26:00;11.77;;;10.45;;
65202;SDS011;51788;45.124;38.966;2024-01-30T01:28:26;6.43;;;5.53;;
65202;SDS011;51788;45.124;38.966;2024-01-30T01:30:52;7.90;;;7.13;;
65202;SDS011;51788;45.124;38.966;2024-01-30T01:33:18;6.57;;;6.00;;
65202;SDS011;51788;45.124;38.966;2024-01-30T01:35:44;8.60;;;7.85;;
65202;SDS011;51788;45.124;38.966;2024-01-30T01:38:10;8.75;;;7.18;;
65202;SDS011;51788;45.124;38.966;2024-01-30T01:40:36;12.27;;;9.77;;
65202;SDS011;51788;45.124;38.966;2024-01-30T01:43:05;12.02;;;10.50;;
65202;SDS011;51788;45.124;38.966;2024-01-30T01:45:31;33.17;;;8.95;;
65202;SDS011;51788;45.124;38.966;2024-01-30T01:47:57;11.57;;;9.15;;
65202;SDS011;51788;45.124;38.966;2024-01-30T01:50:23;6.75;;;6.10;;
65202;SDS011;51788;45.124;38.966;2024-01-30T01:52:50;9.15;;;7.45;;
65202;SDS011;51788;45.124;38.966;2024-01-30T01:55:17;8.88;;;7.93;;
65202;SDS011;51788;45.124;38.966;2024-01-30T01:57:50;7.72;;;6.93;;
65202;SDS011;51788;45.124;38.966;2024-01-30T02:00:18;11.80;;;9.93;;
65202;SDS011;51788;45.124;38.966;2024-01-30T02:02:45;10.55;;;9.05;;
65202;SDS011;51788;45.124;38.966;2024-01-30T02:05:12;8.25;;;7.28;;
65202;SDS011;51788;45.124;38.966;2024-01-30T02:07:38;14.43;;;9.57;;
65202;SDS011;51788;45.124;38.966;2024-01-30T02:10:04;10.05;;;8.02;;
65202;SDS011;51788;45.124;38.966;2024-01-30T02:12:30;11.70;;;9.70;;
65202;SDS011;51788;45.124;38.966;2024-01-30T02:14:56;10.98;;;9.25;;
65202;SDS011;51788;45.124;38.966;2024-01-30T02:17:23;6.95;;;6.18;;
65202;SDS011;51788;45.124;38.966;2024-01-30T02:19:49;12.52;;;9.38;;
65202;SDS011;51788;45.124;38.966;2024-01-30T02:22:15;12.10;;;9.13;;
65202;SDS011;51788;45.124;38.966;2024-01-30T02:24:42;14.70;;;11.63;;
65202;SDS011;51788;45.124;38.966;2024-01-30T02:27:08;15.80;;;10.90;;
65202;SDS011;51788;45.124;38.966;2024-01-30T02:29:34;11.35;;;8.55;;
65202;SDS011;51788;45.124;38.966;2024-01-30T02:31:59;7.53;;;6.55;;
65202;SDS011;51788;45.124;38.966;2024-01-30T02:34:25;8.10;;;6.72;;
65202;SDS011;51788;45.124;38.966;2024-01-30T02:36:51;6.70;;;6.10;;
65202;SDS011;51788;45.124;38.966;2024-01-30T02:39:17;13.60;;;10.32;;
65202;SDS011;51788;45.124;38.966;2024-01-30T02:41:43;16.38;;;12.18;;
65202;SDS011;51788;45.124;38.966;2024-01-30T02:44:09;9.02;;;8.00;;
65202;SDS011;51788;45.124;38.966;2024-01-30T02:46:35;11.38;;;9.48;;
65202;SDS011;51788;45.124;38.966;2024-01-30T02:49:01;7.05;;;6.43;;
65202;SDS011;51788;45.124;38.966;2024-01-30T02:51:27;15.63;;;10.90;;
65202;SDS011;51788;45.124;38.966;2024-01-30T02:53:53;18.33;;;12.38;;
65202;SDS011;51788;45.124;38.966;2024-01-30T02:56:19;9.20;;;8.23;;
65202;SDS011;51788;45.124;38.966;2024-01-30T02:58:45;10.65;;;9.52;;
65202;SDS011;51788;45.124;38.966;2024-01-30T03:01:11;11.77;;;9.55;;
65202;SDS011;51788;45.124;38.966;2024-01-30T03:03:36;14.18;;;10.30;;
65202;SDS011;51788;45.124;38.966;2024-01-30T03:06:02;11.73;;;8.73;;
65202;SDS011;51788;45.124;38.966;2024-01-30T03:08:29;7.18;;;5.25;;
65202;SDS011;51788;45.124;38.966;2024-01-30T03:10:54;12.40;;;8.02;;
65202;SDS011;51788;45.124;38.966;2024-01-30T03:13:21;12.93;;;10.85;;
65202;SDS011;51788;45.124;38.966;2024-01-30T03:15:48;9.30;;;7.85;;
65202;SDS011;51788;45.124;38.966;2024-01-30T03:18:14;12.07;;;9.85;;
65202;SDS011;51788;45.124;38.966;2024-01-30T03:20:40;17.77;;;10.82;;
65202;SDS011;51788;45.124;38.966;2024-01-30T03:23:06;13.02;;;9.88;;
65202;SDS011;51788;45.124;38.966;2024-01-30T03:25:32;12.68;;;10.40;;
65202;SDS011;51788;45.124;38.966;2024-01-30T03:27:58;9.20;;;8.30;;
65202;SDS011;51788;45.124;38.966;2024-01-30T03:30:24;8.85;;;7.20;;
65202;SDS011;51788;45.124;38.966;2024-01-30T03:32:50;18.83;;;11.98;;
65202;SDS011;51788;45.124;38.966;2024-01-30T03:35:16;9.57;;;8.30;;
65202;SDS011;51788;45.124;38.966;2024-01-30T03:37:44;8.90;;;7.72;;
65202;SDS011;51788;45.124;38.966;2024-01-30T03:40:10;9.00;;;7.63;;
65202;SDS011;51788;45.124;38.966;2024-01-30T03:42:36;15.52;;;9.68;;
65202;SDS011;51788;45.124;38.966;2024-01-30T03:45:02;7.82;;;5.88;;
65202;SDS011;51788;45.124;38.966;2024-01-30T03:47:28;18.38;;;11.07;;
65202;SDS011;51788;45.124;38.966;2024-01-30T03:49:54;13.90;;;8.15;;
65202;SDS011;51788;45.124;38.966;2024-01-30T03:52:20;11.55;;;10.30;;
65202;SDS011;51788;45.124;38.966;2024-01-30T03:54:46;18.85;;;11.70;;
65202;SDS011;51788;45.124;38.966;2024-01-30T03:57:12;14.50;;;10.02;;
65202;SDS011;51788;45.124;38.966;2024-01-30T03:59:38;12.65;;;10.18;;
65202;SDS011;51788;45.124;38.966;2024-01-30T04:02:06;17.77;;;12.00;;
65202;SDS011;51788;45.124;38.966;2024-01-30T04:04:32;10.65;;;8.63;;
65202;SDS011;51788;45.124;38.966;2024-01-30T04:06:58;19.25;;;14.35;;
65202;SDS011;51788;45.124;38.966;2024-01-30T04:09:24;12.10;;;9.07;;
65202;SDS011;51788;45.124;38.966;2024-01-30T04:11:51;13.02;;;11.45;;
65202;SDS011;51788;45.124;38.966;2024-01-30T04:14:17;14.63;;;11.00;;
65202;SDS011;51788;45.124;38.966;2024-01-30T04:16:43;14.32;;;11.98;;
65202;SDS011;51788;45.124;38.966;2024-01-30T04:19:09;12.23;;;10.43;;
65202;SDS011;51788;45.124;38.966;2024-01-30T04:21:35;6.68;;;6.20;;
65202;SDS011;51788;45.124;38.966;2024-01-30T04:24:01;15.70;;;10.13;;
65202;SDS011;51788;45.124;38.966;2024-01-30T04:26:27;12.57;;;11.23;;
65202;SDS011;51788;45.124;38.966;2024-01-30T04:28:53;11.32;;;8.35;;
65202;SDS011;51788;45.124;38.966;2024-01-30T04:31:19;12.75;;;10.50;;
65202;SDS011;51788;45.124;38.966;2024-01-30T04:33:45;14.13;;;10.93;;
65202;SDS011;51788;45.124;38.966;2024-01-30T04:36:11;9.23;;;6.60;;
65202;SDS011;51788;45.124;38.966;2024-01-30T04:38:40;13.75;;;9.60;;
65202;SDS011;51788;45.124;38.966;2024-01-30T04:41:06;7.60;;;5.88;;
65202;SDS011;51788;45.124;38.966;2024-01-30T04:43:32;18.73;;;12.05;;
65202;SDS011;51788;45.124;38.966;2024-01-30T04:45:58;13.00;;;11.35;;
65202;SDS011;51788;45.124;38.966;2024-01-30T04:48:24;8.68;;;7.78;;
65202;SDS011;51788;45.124;38.966;2024-01-30T04:50:50;12.60;;;10.50;;
65202;SDS011;51788;45.124;38.966;2024-01-30T04:53:16;12.13;;;8.20;;
65202;SDS011;51788;45.124;38.966;2024-01-30T04:55:42;14.85;;;10.20;;
65202;SDS011;51788;45.124;38.966;2024-01-30T04:58:08;18.52;;;15.23;;
65202;SDS011;51788;45.124;38.966;2024-01-30T05:00:34;6.95;;;6.35;;
65202;SDS011;51788;45.124;38.966;2024-01-30T05:03:00;15.68;;;8.68;;
65202;SDS011;51788;45.124;38.966;2024-01-30T05:05:26;8.95;;;8.05;;
65202;SDS011;51788;45.124;38.966;2024-01-30T05:07:52;9.55;;;7.78;;
65202;SDS011;51788;45.124;38.966;2024-01-30T05:10:18;8.95;;;5.32;;
65202;SDS011;51788;45.124;38.966;2024-01-30T05:12:44;6.20;;;5.63;;
65202;SDS011;51788;45.124;38.966;2024-01-30T05:15:10;12.48;;;8.57;;
65202;SDS011;51788;45.124;38.966;2024-01-30T05:17:36;12.40;;;8.68;;
65202;SDS011;51788;45.124;38.966;2024-01-30T05:20:02;11.70;;;7.20;;
65202;SDS011;51788;45.124;38.966;2024-01-30T05:22:30;18.75;;;12.68;;
65202;SDS011;51788;45.124;38.966;2024-01-30T05:24:56;28.70;;;16.45;;
65202;SDS011;51788;45.124;38.966;2024-01-30T05:27:22;17.27;;;13.30;;
65202;SDS011;51788;45.124;38.966;2024-01-30T05:29:47;18.27;;;10.38;;
65202;SDS011;51788;45.124;38.966;2024-01-30T05:32:13;13.65;;;10.25;;
65202;SDS011;51788;45.124;38.966;2024-01-30T05:34:39;17.17;;;13.32;;
65202;SDS011;51788;45.124;38.966;2024-01-30T05:37:05;14.20;;;9.52;;
65202;SDS011;51788;45.124;38.966;2024-01-30T05:39:31;14.27;;;11.32;;
65202;SDS011;51788;45.124;38.966;2024-01-30T05:41:58;16.52;;;11.40;;
65202;SDS011;51788;45.124;38.966;2024-01-30T05:44:24;7.95;;;7.07;;
65202;SDS011;51788;45.124;38.966;2024-01-30T05:46:50;19.30;;;13.38;;
65202;SDS011;51788;45.124;38.966;2024-01-30T05:49:16;20.33;;;13.05;;
65202;SDS011;51788;45.124;38.966;2024-01-30T05:51:42;19.80;;;14.35;;
65202;SDS011;51788;45.124;38.966;2024-01-30T05:54:08;21.27;;;15.63;;
65202;SDS011;51788;45.124;38.966;2024-01-30T05:56:34;17.92;;;13.13;;
65202;SDS011;51788;45.124;38.966;2024-01-30T05:59:00;11.27;;;9.27;;
65202;SDS011;51788;45.124;38.966;2024-01-30T06:01:26;21.88;;;14.40;;
65202;SDS011;51788;45.124;38.966;2024-01-30T06:03:51;18.90;;;11.68;;
65202;SDS011;51788;45.124;38.966;2024-01-30T06:06:17;15.20;;;10.05;;
65202;SDS011;51788;45.124;38.966;2024-01-30T06:08:43;15.52;;;12.30;;
65202;SDS011;51788;45.124;38.966;2024-01-30T06:11:10;15.68;;;12.30;;
65202;SDS011;51788;45.124;38.966;2024-01-30T06:13:39;26.67;;;10.35;;
65202;SDS011;51788;45.124;38.966;2024-01-30T06:16:08;14.35;;;11.73;;
65202;SDS011;51788;45.124;38.966;2024-01-30T06:18:35;12.68;;;9.93;;
65202;SDS011;51788;45.124;38.966;2024-01-30T06:21:01;11.98;;;10.57;;
65202;SDS011;51788;45.124;38.966;2024-01-30T06:23:27;11.93;;;8.88;;
65202;SDS011;51788;45.124;38.966;2024-01-30T06:25:53;11.70;;;8.80;;
65202;SDS011;51788;45.124;38.966;2024-01-30T06:28:19;14.73;;;12.35;;
65202;SDS011;51788;45.124;38.966;2024-01-30T06:30:45;23.02;;;11.05;;
65202;SDS011;51788;45.124;38.966;2024-01-30T06:33:12;8.77;;;7.22;;
65202;SDS011;51788;45.124;38.966;2024-01-30T06:35:38;8.15;;;6.93;;
65202;SDS011;51788;45.124;38.966;2024-01-30T06:38:05;14.30;;;11.00;;
65202;SDS011;51788;45.124;38.966;2024-01-30T06:40:32;4.78;;;4.43;;
65202;SDS011;51788;45.124;38.966;2024-01-30T06:42:58;11.65;;;8.98;;
65202;SDS011;51788;45.124;38.966;2024-01-30T06:45:24;10.30;;;9.23;;
65202;SDS011;51788;45.124;38.966;2024-01-30T06:47:50;15.73;;;13.23;;
65202;SDS011;51788;45.124;38.966;2024-01-30T06:50:16;16.25;;;12.27;;
65202;SDS011;51788;45.124;38.966;2024-01-30T06:52:42;15.23;;;7.68;;
65202;SDS011;51788;45.124;38.966;2024-01-30T06:55:08;11.85;;;10.60;;
65202;SDS011;51788;45.124;38.966;2024-01-30T06:57:34;27.02;;;8.57;;
65202;SDS011;51788;45.124;38.966;2024-01-30T07:00:00;13.68;;;9.95;;
65202;SDS011;51788;45.124;38.966;2024-01-30T07:02:26;11.93;;;5.97;;
65202;SDS011;51788;45.124;38.966;2024-01-30T07:04:52;7.13;;;6.53;;
65202;SDS011;51788;45.124;38.966;2024-01-30T07:07:18;8.43;;;7.55;;
65202;SDS011;51788;45.124;38.966;2024-01-30T07:09:44;5.70;;;4.13;;
65202;SDS011;51788;45.124;38.966;2024-01-30T07:12:10;8.85;;;6.82;;
65202;SDS011;51788;45.124;38.966;2024-01-30T07:14:36;8.85;;;7.90;;
65202;SDS011;51788;45.124;38.966;2024-01-30T07:17:02;8.15;;;6.70;;
65202;SDS011;51788;45.124;38.966;2024-01-30T07:19:28;8.13;;;6.03;;
65202;SDS011;51788;45.124;38.966;2024-01-30T07:21:54;9.20;;;8.15;;
65202;SDS011;51788;45.124;38.966;2024-01-30T07:24:20;10.02;;;7.90;;
65202;SDS011;51788;45.124;38.966;2024-01-30T07:26:45;12.32;;;9.23;;
65202;SDS011;51788;45.124;38.966;2024-01-30T07:29:11;9.98;;;7.72;;
65202;SDS011;51788;45.124;38.966;2024-01-30T07:31:37;15.23;;;10.20;;
65202;SDS011;51788;45.124;38.966;2024-01-30T07:34:03;19.98;;;11.15;;
65202;SDS011;51788;45.124;38.966;2024-01-30T07:36:29;26.73;;;18.10;;
65202;SDS011;51788;45.124;38.966;2024-01-30T07:38:55;27.23;;;17.98;;
65202;SDS011;51788;45.124;38.966;2024-01-30T07:41:21;15.50;;;13.05;;
65202;SDS011;51788;45.124;38.966;2024-01-30T07:43:48;21.15;;;9.98;;
65202;SDS011;51788;45.124;38.966;2024-01-30T07:46:14;17.45;;;10.65;;
65202;SDS011;51788;45.124;38.966;2024-01-30T07:48:40;12.75;;;8.70;;
65202;SDS011;51788;45.124;38.966;2024-01-30T07:51:06;15.63;;;12.40;;
65202;SDS011;51788;45.124;38.966;2024-01-30T07:53:32;9.60;;;6.50;;
65202;SDS011;51788;45.124;38.966;2024-01-30T07:55:58;7.35;;;6.63;;
65202;SDS011;51788;45.124;38.966;2024-01-30T07:58:23;8.05;;;6.25;;
65202;SDS011;51788;45.124;38.966;2024-01-30T08:00:52;9.30;;;7.47;;
65202;SDS011;51788;45.124;38.966;2024-01-30T08:03:18;20.00;;;11.20;;
65202;SDS011;51788;45.124;38.966;2024-01-30T08:05:44;13.95;;;10.15;;
65202;SDS011;51788;45.124;38.966;2024-01-30T08:08:10;15.25;;;10.52;;
65202;SDS011;51788;45.124;38.966;2024-01-30T08:10:36;16.00;;;9.60;;
65202;SDS011;51788;45.124;38.966;2024-01-30T08:13:02;32.58;;;17.08;;
65202;SDS011;51788;45.124;38.966;2024-01-30T08:15:28;13.15;;;8.65;;
65202;SDS011;51788;45.124;38.966;2024-01-30T08:17:54;15.07;;;10.75;;
65202;SDS011;51788;45.124;38.966;2024-01-30T08:20:23;10.63;;;6.97;;
65202;SDS011;51788;45.124;38.966;2024-01-30T08:22:50;7.65;;;6.38;;
65202;SDS011;51788;45.124;38.966;2024-01-30T08:25:16;11.23;;;7.43;;
65202;SDS011;51788;45.124;38.966;2024-01-30T08:27:42;8.70;;;7.85;;
65202;SDS011;51788;45.124;38.966;2024-01-30T08:30:08;5.65;;;5.00;;
65202;SDS011;51788;45.124;38.966;2024-01-30T08:32:34;6.82;;;6.10;;
65202;SDS011;51788;45.124;38.966;2024-01-30T08:35:00;11.43;;;7.30;;
65202;SDS011;51788;45.124;38.966;2024-01-30T08:37:29;7.72;;;6.90;;
65202;SDS011;51788;45.124;38.966;2024-01-30T08:39:55;6.35;;;4.90;;
65202;SDS011;51788;45.124;38.966;2024-01-30T08:42:21;11.80;;;7.65;;
65202;SDS011;51788;45.124;38.966;2024-01-30T08:44:48;6.93;;;5.22;;
65202;SDS011;51788;45.124;38.966;2024-01-30T08:47:16;7.15;;;5.38;;
65202;SDS011;51788;45.124;38.966;2024-01-30T08:49:44;5.88;;;5.32;;
65202;SDS011;51788;45.124;38.966;2024-01-30T08:52:10;7.88;;;6.40;;
65202;SDS011;51788;45.124;38.966;2024-01-30T08:54:36;4.90;;;4.40;;
65202;SDS011;51788;45.124;38.966;2024-01-30T08:57:02;5.93;;;5.07;;
65202;SDS011;51788;45.124;38.966;2024-01-30T08:59:29;5.00;;;4.47;;
65202;SDS011;51788;45.124;38.966;2024-01-30T09:01:55;4.88;;;4.43;;
65202;SDS011;51788;45.124;38.966;2024-01-30T09:04:23;14.35;;;6.22;;
65202;SDS011;51788;45.124;38.966;2024-01-30T09:06:49;6.05;;;5.55;;
65202;SDS011;51788;45.124;38.966;2024-01-30T09:09:15;4.50;;;4.10;;
65202;SDS011;51788;45.124;38.966;2024-01-30T09:11:43;4.88;;;3.05;;
65202;SDS011;51788;45.124;38.966;2024-01-30T09:14:09;10.63;;;5.65;;
65202;SDS011;51788;45.124;38.966;2024-01-30T09:16:35;6.47;;;5.40;;
65202;SDS011;51788;45.124;38.966;2024-01-30T09:19:01;13.13;;;5.88;;
65202;SDS011;51788;45.124;38.966;2024-01-30T09:21:27;4.97;;;4.53;;
65202;SDS011;51788;45.124;38.966;2024-01-30T09:23:54;7.03;;;4.25;;
65202;SDS011;51788;45.124;38.966;2024-01-30T09:26:26;6.75;;;5.35;;
65202;SDS011;51788;45.124;38.966;2024-01-30T09:28:52;9.02;;;6.03;;
65202;SDS011;51788;45.124;38.966;2024-01-30T09:31:18;4.22;;;3.80;;
65202;SDS011;51788;45.124;38.966;2024-01-30T09:33:44;5.97;;;4.20;;
65202;SDS011;51788;45.124;38.966;2024-01-30T09:36:12;7.90;;;5.22;;
65202;SDS011;51788;45.124;38.966;2024-01-30T09:38:40;12.90;;;5.93;;
65202;SDS011;51788;45.124;38.966;2024-01-30T09:41:08;11.35;;;6.43;;
65202;SDS011;51788;45.124;38.966;2024-01-30T09:43:38;6.70;;;4.72;;
65202;SDS011;51788;45.124;38.966;2024-01-30T09:46:07;7.18;;;5.03;;
65202;SDS011;51788;45.124;38.966;2024-01-30T09:48:39;9.43;;;5.53;;
65202;SDS011;51788;45.124;38.966;2024-01-30T09:51:07;7.82;;;6.13;;
65202;SDS011;51788;45.124;38.966;2024-01-30T09:53:35;9.57;;;6.40;;
65202;SDS011;51788;45.124;38.966;2024-01-30T09:56:02;13.18;;;4.75;;
65202;SDS011;51788;45.124;38.966;2024-01-30T09:58:29;4.78;;;4.28;;
65202;SDS011;51788;45.124;38.966;2024-01-30T10:00:55;5.32;;;3.30;;
65202;SDS011;51788;45.124;38.966;2024-01-30T10:03:21;6.25;;;5.43;;
65202;SDS011;51788;45.124;38.966;2024-01-30T10:05:53;5.00;;;4.55;;
65202;SDS011;51788;45.124;38.966;2024-01-30T10:08:21;6.40;;;5.65;;
65202;SDS011;51788;45.124;38.966;2024-01-30T10:10:47;20.65;;;4.80;;
65202;SDS011;51788;45.124;38.966;2024-01-30T10:13:15;10.95;;;5.13;;
65202;SDS011;51788;45.124;38.966;2024-01-30T10:15:42;6.07;;;5.20;;
65202;SDS011;51788;45.124;38.966;2024-01-30T10:18:08;7.32;;;3.88;;
65202;SDS011;51788;45.124;38.966;2024-01-30T10:20:35;6.03;;;5.47;;
65202;SDS011;51788;45.124;38.966;2024-01-30T10:23:02;7.60;;;5.60;;
65202;SDS011;51788;45.124;38.966;2024-01-30T10:25:29;5.47;;;4.88;;
65202;SDS011;51788;45.124;38.966;2024-01-30T10:27:59;8.43;;;5.15;;
65202;SDS011;51788;45.124;38.966;2024-01-30T10:30:25;7.55;;;6.18;;
65202;SDS011;51788;45.124;38.966;2024-01-30T10:32:53;12.60;;;4.72;;
65202;SDS011;51788;45.124;38.966;2024-01-30T10:35:19;6.57;;;5.43;;
65202;SDS011;51788;45.124;38.966;2024-01-30T10:37:46;7.50;;;6.53;;
65202;SDS011;51788;45.124;38.966;2024-01-30T10:40:13;10.32;;;6.95;;
65202;SDS011;51788;45.124;38.966;2024-01-30T10:42:44;4.70;;;4.18;;
65202;SDS011;51788;45.124;38.966;2024-01-30T10:45:12;8.98;;;6.07;;
65202;SDS011;51788;45.124;38.966;2024-01-30T10:47:43;17.25;;;6.07;;
65202;SDS011;51788;45.124;38.966;2024-01-30T10:50:16;9.35;;;6.03;;
65202;SDS011;51788;45.124;38.966;2024-01-30T10:52:42;9.60;;;7.35;;
65202;SDS011;51788;45.124;38.966;2024-01-30T10:55:09;9.25;;;6.38;;
65202;SDS011;51788;45.124;38.966;2024-01-30T10:57:36;7.78;;;6.00;;
65202;SDS011;51788;45.124;38.966;2024-01-30T11:00:04;4.68;;;4.28;;
65202;SDS011;51788;45.124;38.966;2024-01-30T11:02:38;12.77;;;6.45;;
65202;SDS011;51788;45.124;38.966;2024-01-30T11:05:05;12.02;;;6.32;;
65202;SDS011;51788;45.124;38.966;2024-01-30T11:07:32;5.38;;;4.88;;
65202;SDS011;51788;45.124;38.966;2024-01-30T11:12:29;5.93;;;3.40;;
65202;SDS011;51788;45.124;38.966;2024-01-30T11:15:02;7.75;;;5.57;;
65202;SDS011;51788;45.124;38.966;2024-01-30T11:17:43;5.43;;;3.92;;
65202;SDS011;51788;45.124;38.966;2024-01-30T11:20:18;6.55;;;4.97;;
65202;SDS011;51788;45.124;38.966;2024-01-30T11:22:51;3.90;;;3.58;;
65202;SDS011;51788;45.124;38.966;2024-01-30T11:25:20;10.20;;;6.30;;
65202;SDS011;51788;45.124;38.966;2024-01-30T11:27:47;10.20;;;5.15;;
65202;SDS011;51788;45.124;38.966;2024-01-30T11:30:25;3.90;;;3.63;;
65202;SDS011;51788;45.124;38.966;2024-01-30T11:32:58;7.20;;;6.03;;
65202;SDS011;51788;45.124;38.966;2024-01-30T11:35:24;5.88;;;4.20;;
65202;SDS011;51788;45.124;38.966;2024-01-30T11:37:51;7.60;;;3.80;;
65202;SDS011;51788;45.124;38.966;2024-01-30T11:40:17;6.45;;;3.88;;
65202;SDS011;51788;45.124;38.966;2024-01-30T11:42:44;3.20;;;2.97;;
65202;SDS011;51788;45.124;38.966;2024-01-30T11:45:12;28.25;;;5.50;;
65202;SDS011;51788;45.124;38.966;2024-01-30T11:47:38;4.30;;;3.90;;
65202;SDS011;51788;45.124;38.966;2024-01-30T11:50:06;5.82;;;3.95;;
65202;SDS011;51788;45.124;38.966;2024-01-30T11:52:33;5.13;;;4.63;;
65202;SDS011;51788;45.124;38.966;2024-01-30T11:55:00;4.93;;;4.20;;
65202;SDS011;51788;45.124;38.966;2024-01-30T11:57:29;6.55;;;5.68;;
65202;SDS011;51788;45.124;38.966;2024-01-30T11:59:55;9.10;;;4.25;;
65202;SDS011;51788;45.124;38.966;2024-01-30T12:02:21;3.25;;;2.95;;
65202;SDS011;51788;45.124;38.966;2024-01-30T12:04:47;15.43;;;3.92;;
65202;SDS011;51788;45.124;38.966;2024-01-30T12:07:13;4.28;;;3.92;;
65202;SDS011;51788;45.124;38.966;2024-01-30T12:09:42;4.80;;;4.30;;
65202;SDS011;51788;45.124;38.966;2024-01-30T12:12:19;5.22;;;3.33;;
65202;SDS011;51788;45.124;38.966;2024-01-30T12:14:46;5.25;;;3.28;;
65202;SDS011;51788;45.124;38.966;2024-01-30T12:17:22;4.50;;;3.45;;
65202;SDS011;51788;45.124;38.966;2024-01-30T12:25:09;7.95;;;4.40;;
65202;SDS011;51788;45.124;38.966;2024-01-30T12:27:39;7.68;;;4.40;;
65202;SDS011;51788;45.124;38.966;2024-01-30T12:30:07;9.32;;;3.53;;
65202;SDS011;51788;45.124;38.966;2024-01-30T12:32:35;6.40;;;4.53;;
65202;SDS011;51788;45.124;38.966;2024-01-30T12:35:01;5.07;;;4.20;;
65202;SDS011;51788;45.124;38.966;2024-01-30T12:37:29;10.52;;;4.85;;
65202;SDS011;51788;45.124;38.966;2024-01-30T12:39:55;7.82;;;3.47;;
65202;SDS011;51788;45.124;38.966;2024-01-30T12:42:22;5.68;;;4.32;;
65202;SDS011;51788;45.124;38.966;2024-01-30T12:44:48;4.50;;;3.58;;
65202;SDS011;51788;45.124;38.966;2024-01-30T12:47:15;9.52;;;4.65;;
65202;SDS011;51788;45.124;38.966;2024-01-30T12:49:42;4.53;;;2.95;;
65202;SDS011;51788;45.124;38.966;2024-01-30T12:52:10;4.32;;;3.97;;
65202;SDS011;51788;45.124;38.966;2024-01-30T12:54:37;19.08;;;3.90;;
65202;SDS011;51788;45.124;38.966;2024-01-30T12:57:04;3.60;;;3.22;;
65202;SDS011;51788;45.124;38.966;2024-01-30T12:59:30;4.13;;;3.75;;
65202;SDS011;51788;45.124;38.966;2024-01-30T13:01:58;7.25;;;3.35;;
65202;SDS011;51788;45.124;38.966;2024-01-30T13:04:25;2.72;;;2.53;;
65202;SDS011;51788;45.124;38.966;2024-01-30T13:06:52;8.27;;;4.45;;
65202;SDS011;51788;45.124;38.966;2024-01-30T13:09:18;4.07;;;3.67;;
65202;SDS011;51788;45.124;38.966;2024-01-30T13:11:44;3.92;;;2.80;;
65202;SDS011;51788;45.124;38.966;2024-01-30T13:14:11;4.00;;;3.08;;
65202;SDS011;51788;45.124;38.966;2024-01-30T13:16:37;5.55;;;2.90;;
65202;SDS011;51788;45.124;38.966;2024-01-30T13:19:03;8.60;;;3.10;;
65202;SDS011;51788;45.124;38.966;2024-01-30T13:21:29;4.40;;;4.03;;
65202;SDS011;51788;45.124;38.966;2024-01-30T13:23:55;7.18;;;3.58;;
65202;SDS011;51788;45.124;38.966;2024-01-30T13:26:21;4.32;;;3.28;;
65202;SDS011;51788;45.124;38.966;2024-01-30T13:28:47;7.15;;;4.15;;
65202;SDS011;51788;45.124;38.966;2024-01-30T13:31:16;5.25;;;3.25;;
65202;SDS011;51788;45.124;38.966;2024-01-30T13:33:43;3.63;;;3.33;;
65202;SDS011;51788;45.124;38.966;2024-01-30T13:36:10;4.90;;;2.72;;
65202;SDS011;51788;45.124;38.966;2024-01-30T13:38:36;4.25;;;3.10;;
65202;SDS011;51788;45.124;38.966;2024-01-30T13:41:03;4.40;;;3.35;;
65202;SDS011;51788;45.124;38.966;2024-01-30T13:43:29;3.50;;;3.20;;
65202;SDS011;51788;45.124;38.966;2024-01-30T13:45:55;3.75;;;3.38;;
65202;SDS011;51788;45.124;38.966;2024-01-30T13:48:21;3.65;;;3.33;;
65202;SDS011;51788;45.124;38.966;2024-01-30T13:50:47;8.30;;;2.97;;
65202;SDS011;51788;45.124;38.966;2024-01-30T13:53:13;7.45;;;3.20;;
65202;SDS011;51788;45.124;38.966;2024-01-30T13:55:39;3.20;;;2.90;;
65202;SDS011;51788;45.124;38.966;2024-01-30T13:58:06;3.20;;;2.92;;
65202;SDS011;51788;45.124;38.966;2024-01-30T14:00:32;6.20;;;3.13;;
65202;SDS011;51788;45.124;38.966;2024-01-30T14:02:59;7.07;;;2.58;;
65202;SDS011;51788;45.124;38.966;2024-01-30T14:05:26;5.03;;;3.50;;
65202;SDS011;51788;45.124;38.966;2024-01-30T14:07:55;3.60;;;3.30;;
65202;SDS011;51788;45.124;38.966;2024-01-30T14:10:23;15.02;;;4.38;;
65202;SDS011;51788;45.124;38.966;2024-01-30T14:12:49;7.03;;;3.70;;
65202;SDS011;51788;45.124;38.966;2024-01-30T14:15:15;5.65;;;3.53;;
65202;SDS011;51788;45.124;38.966;2024-01-30T14:17:44;4.15;;;3.22;;
65202;SDS011;51788;45.124;38.966;2024-01-30T14:20:10;4.85;;;3.65;;
65202;SDS011;51788;45.124;38.966;2024-01-30T14:22:36;10.82;;;3.40;;
65202;SDS011;51788;45.124;38.966;2024-01-30T14:25:03;7.30;;;3.47;;
65202;SDS011;51788;45.124;38.966;2024-01-30T14:27:29;13.40;;;4.55;;
65202;SDS011;51788;45.124;38.966;2024-01-30T14:29:56;15.18;;;5.15;;
65202;SDS011;51788;45.124;38.966;2024-01-30T14:32:22;9.23;;;4.97;;
65202;SDS011;51788;45.124;38.966;2024-01-30T14:34:49;7.65;;;5.05;;
65202;SDS011;51788;45.124;38.966;2024-01-30T14:37:16;17.23;;;7.00;;
65202;SDS011;51788;45.124;38.966;2024-01-30T14:39:42;14.93;;;5.68;;
65202;SDS011;51788;45.124;38.966;2024-01-30T14:42:08;16.10;;;7.70;;
65202;SDS011;51788;45.124;38.966;2024-01-30T14:44:34;34.60;;;8.57;;
65202;SDS011;51788;45.124;38.966;2024-01-30T14:47:00;4.95;;;4.43;;